KCAD/CAD METAR and TAF weather

Enter ICAO airport designator
Station Type Date Time Source
KCAD METAR 2021/04/13 23:15 UTC NOAA

KCAD 132315Z AUTO 25008G15KT 10SM SCT028 BKN034 OVC048 07/01 A3003 RMK AO2 T00660005


Station Type Date Time Source
KCAD Decoded METAR 2021/04/13 23:15 UTC NOAA

Cadillac / Wexford County, MI, United States (KCAD) 44-17N 085-25W
Apr 13, 2021 - 07:15 PM EDT / 2021.04.13 2315 UTC
Wind: from the WSW (250 degrees) at 9 MPH (8 KT) gusting to 17 MPH (15 KT):0
Visibility: 10 mile(s):0
Sky conditions: overcast
Temperature: 43.9 F (6.6 C)
Dew Point: 32.9 F (0.5 C)
Relative Humidity: 65%
Pressure (altimeter): 30.03 in. Hg (1016 hPa)
ob: KCAD 132315Z AUTO 25008G15KT 10SM SCT028 BKN034 OVC048 07/01 A3003 RMK AO2 T00660005
cycle: 23

Station Type Date Time Source
KCAD TAF UTC NOAA

Error!

Example: see airport list